createdAt,value
2023-03-06T00:01:09.153Z,7.47
2023-03-06T00:03:35.874Z,8.35
2023-03-06T00:06:02.628Z,8.52
2023-03-06T00:08:29.958Z,9.50
2023-03-06T00:10:57.266Z,8.95
2023-03-06T00:13:24.995Z,9.45
2023-03-06T00:15:51.806Z,9.50
2023-03-06T00:18:18.528Z,9.88
2023-03-06T00:20:45.392Z,10.30
2023-03-06T00:23:12.516Z,10.40
2023-03-06T00:25:43.760Z,9.48
2023-03-06T00:28:12.147Z,10.48
2023-03-06T00:30:38.918Z,10.13
2023-03-06T00:33:05.698Z,9.13
2023-03-06T00:35:32.411Z,10.70
2023-03-06T00:37:59.812Z,9.73
2023-03-06T00:40:27.214Z,10.02
2023-03-06T00:42:53.922Z,10.40
2023-03-06T00:45:20.648Z,10.90
2023-03-06T00:47:47.355Z,11.68
2023-03-06T00:50:14.766Z,11.70
2023-03-06T00:52:42.067Z,13.40
2023-03-06T00:55:10.477Z,12.65
2023-03-06T00:57:37.242Z,12.02
2023-03-06T01:00:05.982Z,13.57
2023-03-06T01:02:32.820Z,13.10
2023-03-06T01:04:59.695Z,15.05
2023-03-06T01:07:27.752Z,15.02
2023-03-06T01:09:54.641Z,13.32
2023-03-06T01:12:23.481Z,13.98
2023-03-06T01:14:51.206Z,13.82
2023-03-06T01:17:17.847Z,13.38
2023-03-06T01:19:44.550Z,13.00
2023-03-06T01:22:13.557Z,13.90
2023-03-06T01:24:40.313Z,13.07
2023-03-06T01:27:07.043Z,14.57
2023-03-06T01:29:33.747Z,14.07
2023-03-06T01:32:00.642Z,13.45
2023-03-06T01:34:27.404Z,13.75
2023-03-06T01:36:54.108Z,13.20
2023-03-06T01:39:20.822Z,13.90
2023-03-06T01:41:47.557Z,15.10
2023-03-06T01:44:14.182Z,14.45
2023-03-06T01:46:45.621Z,14.82
2023-03-06T01:49:34.425Z,14.95
2023-03-06T01:52:11.756Z,14.45
2023-03-06T01:55:00.725Z,14.02
2023-03-06T01:57:40.521Z,14.40
2023-03-06T02:00:15.997Z,13.70
2023-03-06T02:02:50.272Z,15.43
2023-03-06T02:05:17.080Z,16.23
2023-03-06T02:07:45.327Z,16.75
2023-03-06T02:10:16.754Z,14.95
2023-03-06T02:12:45.609Z,16.50
2023-03-06T02:15:15.979Z,14.90
2023-03-06T02:17:45.225Z,13.85
2023-03-06T02:20:39.514Z,16.38
2023-03-06T02:23:15.076Z,14.23
2023-03-06T02:25:49.422Z,15.23
2023-03-06T02:28:20.083Z,16.17
2023-03-06T02:30:50.847Z,16.00
2023-03-06T02:33:21.465Z,16.55
2023-03-06T02:36:00.279Z,17.40
2023-03-06T02:38:45.499Z,16.98
2023-03-06T02:41:12.224Z,15.43
2023-03-06T02:43:42.815Z,17.08
2023-03-06T02:46:09.606Z,15.63
2023-03-06T02:48:36.603Z,16.40
2023-03-06T02:51:03.522Z,15.75
2023-03-06T02:53:30.265Z,17.48
2023-03-06T02:55:59.322Z,18.23
2023-03-06T02:58:26.161Z,16.83
2023-03-06T03:00:52.877Z,16.17
2023-03-06T03:03:20.511Z,15.85
2023-03-06T03:05:47.171Z,16.52
2023-03-06T03:08:28.355Z,15.02
2023-03-06T03:10:59.519Z,14.98
2023-03-06T03:13:29.945Z,16.75
2023-03-06T03:16:00.900Z,15.40
2023-03-06T03:18:28.432Z,15.27
2023-03-06T03:20:55.800Z,16.10
2023-03-06T03:23:23.737Z,16.60
2023-03-06T03:25:51.096Z,15.18
2023-03-06T03:28:19.223Z,15.52
2023-03-06T03:30:46.707Z,15.63
2023-03-06T03:33:14.980Z,15.18
2023-03-06T03:35:42.950Z,16.08
2023-03-06T03:38:10.200Z,14.90
2023-03-06T03:40:38.863Z,13.98
2023-03-06T03:43:05.567Z,15.00
2023-03-06T03:45:32.859Z,14.90
2023-03-06T03:47:59.562Z,14.32
2023-03-06T03:50:26.693Z,16.55
2023-03-06T03:52:53.497Z,15.25
2023-03-06T03:55:20.488Z,16.85
2023-03-06T03:57:47.251Z,14.77
2023-03-06T04:00:16.582Z,16.77
2023-03-06T04:02:52.438Z,18.33
2023-03-06T04:07:55.098Z,16.30
2023-03-06T04:10:21.828Z,17.95
2023-03-06T04:12:49.436Z,16.38
2023-03-06T04:15:16.854Z,19.17
2023-03-06T04:17:46.026Z,16.90
2023-03-06T04:20:16.074Z,16.80
2023-03-06T04:22:43.813Z,17.38
2023-03-06T04:25:11.705Z,17.00
2023-03-06T04:27:38.642Z,18.02
2023-03-06T04:30:07.835Z,18.15
2023-03-06T04:32:35.555Z,18.05
2023-03-06T04:35:03.570Z,18.50
2023-03-06T04:37:35.384Z,18.23
2023-03-06T04:40:02.407Z,18.35
2023-03-06T04:42:29.487Z,19.60
2023-03-06T04:44:56.268Z,19.75
2023-03-06T04:47:23.129Z,20.48
2023-03-06T04:49:49.873Z,20.25
2023-03-06T04:52:16.699Z,19.30
2023-03-06T04:54:43.452Z,18.80
2023-03-06T04:57:10.480Z,19.70
2023-03-06T04:59:39.174Z,19.52
2023-03-06T05:02:06.123Z,17.50
2023-03-06T05:04:32.905Z,20.25
2023-03-06T05:06:59.658Z,21.98
2023-03-06T05:09:26.496Z,21.48
2023-03-06T05:11:53.519Z,20.42
2023-03-06T05:14:20.661Z,22.05
2023-03-06T05:16:47.467Z,19.63
2023-03-06T05:19:14.274Z,19.45
2023-03-06T05:21:41.006Z,21.58
2023-03-06T05:24:07.834Z,21.05
2023-03-06T05:26:34.872Z,20.48
2023-03-06T05:29:01.844Z,21.80
2023-03-06T05:31:28.704Z,20.95
2023-03-06T05:33:57.602Z,19.42
2023-03-06T05:36:25.369Z,20.48
2023-03-06T05:38:52.248Z,20.33
2023-03-06T05:41:18.995Z,18.05
2023-03-06T05:43:45.707Z,20.15
2023-03-06T05:46:12.493Z,18.10
2023-03-06T05:48:39.333Z,20.10
2023-03-06T05:51:06.618Z,19.38
2023-03-06T05:53:33.410Z,17.30
2023-03-06T05:56:10.894Z,19.38
2023-03-06T05:58:38.533Z,17.73
2023-03-06T06:01:14.831Z,19.95
2023-03-06T06:03:41.994Z,19.05
2023-03-06T06:06:11.539Z,20.40
2023-03-06T06:08:38.436Z,19.90
2023-03-06T06:11:07.338Z,19.15
2023-03-06T06:13:34.529Z,18.60
2023-03-06T06:16:16.435Z,18.83
2023-03-06T06:18:43.585Z,18.77
2023-03-06T06:21:13.115Z,17.17
2023-03-06T06:23:40.251Z,19.30
2023-03-06T06:26:08.837Z,18.40
2023-03-06T06:28:36.004Z,17.92
2023-03-06T06:31:12.425Z,19.15
2023-03-06T06:33:41.164Z,18.35
2023-03-06T06:36:20.613Z,18.27
2023-03-06T06:38:47.987Z,18.27
2023-03-06T06:44:08.441Z,19.70
2023-03-06T06:47:20.776Z,19.77
2023-03-06T06:49:23.802Z,18.45
2023-03-06T06:51:50.554Z,17.40
2023-03-06T06:54:18.674Z,18.85
2023-03-06T06:56:45.351Z,18.88
2023-03-06T06:59:17.175Z,19.20
2023-03-06T07:01:44.822Z,18.58
2023-03-06T07:04:13.679Z,18.63
2023-03-06T07:06:41.962Z,17.90
2023-03-06T07:09:08.808Z,16.52
2023-03-06T07:11:37.630Z,16.90
2023-03-06T07:14:04.837Z,17.58
2023-03-06T07:16:31.556Z,17.73
2023-03-06T07:18:58.207Z,15.57
2023-03-06T07:21:24.970Z,15.15
2023-03-06T07:23:51.747Z,14.52
2023-03-06T07:26:18.470Z,15.35
2023-03-06T07:28:52.344Z,15.88
2023-03-06T07:31:26.238Z,15.07
2023-03-06T07:33:54.839Z,17.10
2023-03-06T07:36:23.931Z,16.30
2023-03-06T07:38:50.720Z,16.48
2023-03-06T07:41:21.138Z,15.60
2023-03-06T07:43:50.138Z,15.63
2023-03-06T07:46:17.824Z,17.05
2023-03-06T07:48:44.687Z,16.52
2023-03-06T07:51:18.590Z,15.75
2023-03-06T07:53:45.982Z,16.10
2023-03-06T07:56:13.509Z,16.77
2023-03-06T07:58:45.545Z,16.25
2023-03-06T08:01:19.851Z,16.63
2023-03-06T08:03:47.626Z,17.40
2023-03-06T08:06:18.850Z,20.08
2023-03-06T08:08:47.704Z,20.13
2023-03-06T08:11:16.763Z,18.02
2023-03-06T08:13:44.136Z,19.40
2023-03-06T08:16:11.782Z,19.77
2023-03-06T08:18:39.865Z,22.02
2023-03-06T08:21:13.018Z,23.67
2023-03-06T08:23:40.722Z,24.63
2023-03-06T08:26:11.901Z,24.70
2023-03-06T08:28:38.722Z,22.70
2023-03-06T08:31:19.601Z,22.95
2023-03-06T08:33:46.553Z,22.65
2023-03-06T08:36:13.228Z,23.95
2023-03-06T08:38:39.937Z,23.63
2023-03-06T08:41:06.603Z,24.05
2023-03-06T08:43:35.144Z,22.55
2023-03-06T08:46:02.693Z,23.75
2023-03-06T08:48:29.629Z,21.55
2023-03-06T08:50:56.432Z,22.48
2023-03-06T08:53:40.493Z,23.25
2023-03-06T08:56:20.047Z,20.75
2023-03-06T08:58:47.601Z,21.42
2023-03-06T09:01:27.899Z,24.05
2023-03-06T09:03:58.197Z,21.77
2023-03-06T09:06:26.674Z,21.50
2023-03-06T09:08:54.974Z,22.40
2023-03-06T09:11:23.966Z,21.65
2023-03-06T09:13:51.169Z,20.75
2023-03-06T09:16:18.020Z,22.90
2023-03-06T09:18:44.846Z,19.25
2023-03-06T09:21:11.747Z,20.50
2023-03-06T09:23:39.606Z,19.35
2023-03-06T09:26:07.920Z,20.13
2023-03-06T09:28:40.043Z,21.45
2023-03-06T09:31:14.305Z,19.75
2023-03-06T09:33:41.479Z,21.55
2023-03-06T09:36:14.840Z,21.35
2023-03-06T09:38:41.546Z,20.48
2023-03-06T09:41:30.041Z,20.20
2023-03-06T09:44:04.896Z,21.17
2023-03-06T09:47:00.973Z,21.88
2023-03-06T09:49:42.629Z,20.23
2023-03-06T09:52:43.461Z,21.20
2023-03-06T09:55:31.050Z,21.83
2023-03-06T09:58:18.056Z,18.42
2023-03-06T10:00:50.705Z,19.35
2023-03-06T10:03:29.801Z,20.67
2023-03-06T10:06:07.581Z,17.88
2023-03-06T10:09:14.378Z,16.88
2023-03-06T10:11:58.617Z,16.85
2023-03-06T10:14:57.763Z,16.95
2023-03-06T10:17:34.068Z,16.77
2023-03-06T10:20:01.339Z,16.63
2023-03-06T10:22:33.629Z,16.85
2023-03-06T10:25:30.245Z,15.45
2023-03-06T10:28:03.124Z,15.57
2023-03-06T10:30:51.800Z,16.02
2023-03-06T10:33:27.976Z,12.30
2023-03-06T10:35:56.203Z,14.60
2023-03-06T10:38:37.452Z,14.70
2023-03-06T10:41:13.226Z,13.50
2023-03-06T10:44:02.597Z,15.30
2023-03-06T10:46:36.402Z,15.00
2023-03-06T10:49:26.034Z,15.50
2023-03-06T10:52:15.642Z,16.13
2023-03-06T10:54:44.593Z,15.55
2023-03-06T10:57:32.078Z,16.45
2023-03-06T11:00:23.758Z,15.38
2023-03-06T11:03:20.885Z,16.50
2023-03-06T11:06:06.008Z,16.77
2023-03-06T11:08:33.556Z,16.30
2023-03-06T11:11:05.478Z,18.05
2023-03-06T11:13:37.588Z,15.43
2023-03-06T11:16:30.515Z,14.60
2023-03-06T11:19:16.215Z,15.63
2023-03-06T11:21:43.162Z,16.48
2023-03-06T11:24:19.930Z,17.67
2023-03-06T11:26:59.556Z,16.00
2023-03-06T11:29:43.376Z,15.57
2023-03-06T11:32:52.375Z,15.88
2023-03-06T11:35:39.384Z,16.42
2023-03-06T11:38:16.942Z,16.65
2023-03-06T11:40:53.035Z,17.25
2023-03-06T11:43:47.020Z,16.35
2023-03-06T11:46:48.668Z,17.65
2023-03-06T11:49:30.783Z,18.00
2023-03-06T11:52:10.476Z,17.50
2023-03-06T11:54:37.188Z,18.25
2023-03-06T11:57:17.844Z,17.35
2023-03-06T12:00:13.650Z,17.00
2023-03-06T12:03:10.088Z,14.80
2023-03-06T12:05:46.542Z,16.17
2023-03-06T12:08:43.960Z,17.73
2023-03-06T12:11:24.333Z,16.58
2023-03-06T12:14:04.311Z,17.15
2023-03-06T12:16:58.595Z,15.40
2023-03-06T12:20:22.746Z,15.98
2023-03-06T12:23:15.347Z,13.65
2023-03-06T12:25:50.257Z,13.85
2023-03-06T12:28:54.130Z,14.40
2023-03-06T12:31:27.170Z,13.55
2023-03-06T12:34:17.406Z,15.95
2023-03-06T12:37:11.846Z,15.48
2023-03-06T12:40:06.576Z,14.60
2023-03-06T12:43:21.609Z,13.55
2023-03-06T12:45:52.031Z,14.32
2023-03-06T12:48:27.390Z,14.15
2023-03-06T12:50:54.439Z,14.68
2023-03-06T12:53:32.697Z,15.05
2023-03-06T12:56:02.410Z,14.57
2023-03-06T12:58:29.266Z,14.30
2023-03-06T13:01:20.049Z,14.38
2023-03-06T13:04:05.568Z,13.93
2023-03-06T13:06:59.958Z,13.80
2023-03-06T13:09:35.982Z,14.88
2023-03-06T13:12:39.415Z,13.77
2023-03-06T13:15:32.592Z,12.88
2023-03-06T13:18:00.146Z,12.60
2023-03-06T13:20:52.955Z,12.45
2023-03-06T13:23:38.338Z,12.82
2023-03-06T13:26:10.762Z,13.20
2023-03-06T13:28:47.522Z,11.77
2023-03-06T13:31:27.456Z,11.45
2023-03-06T13:34:02.351Z,11.43
2023-03-06T13:36:34.392Z,11.98
2023-03-06T13:39:11.453Z,12.05
2023-03-06T13:41:59.234Z,11.52
2023-03-06T13:44:25.875Z,11.98
2023-03-06T13:47:19.486Z,12.15
2023-03-06T13:49:48.038Z,12.50
2023-03-06T13:52:32.603Z,13.02
2023-03-06T13:55:52.685Z,12.77
2023-03-06T13:58:38.472Z,14.18
2023-03-06T14:01:32.548Z,12.32
2023-03-06T14:04:39.467Z,11.10
2023-03-06T14:07:33.611Z,10.27
2023-03-06T14:10:11.321Z,7.22
2023-03-06T14:13:00.778Z,7.45
2023-03-06T14:15:50.065Z,10.35
2023-03-06T14:18:42.219Z,10.98
2023-03-06T14:21:15.809Z,11.85
2023-03-06T14:23:45.010Z,12.10
2023-03-06T14:26:22.340Z,11.75
2023-03-06T14:28:52.047Z,12.93
2023-03-06T14:31:24.532Z,12.80
2023-03-06T14:34:01.136Z,12.73
2023-03-06T14:36:53.250Z,13.98
2023-03-06T14:39:33.193Z,14.70
2023-03-06T14:42:30.992Z,15.48
2023-03-06T14:45:18.933Z,14.15
2023-03-06T14:47:53.276Z,14.98
2023-03-06T14:50:33.998Z,14.90
2023-03-06T14:53:18.044Z,17.10
2023-03-06T14:55:56.570Z,15.63
2023-03-06T14:58:45.369Z,15.63
2023-03-06T15:01:13.489Z,15.73
2023-03-06T15:03:53.172Z,14.93
2023-03-06T15:06:27.314Z,15.35
2023-03-06T15:09:26.924Z,14.77
2023-03-06T15:11:59.633Z,15.95
2023-03-06T15:14:40.759Z,14.45
2023-03-06T15:17:19.379Z,11.77
2023-03-06T15:19:52.741Z,14.75
2023-03-06T15:22:37.764Z,13.70
2023-03-06T15:25:31.357Z,14.63
2023-03-06T15:28:25.716Z,14.63
2023-03-06T15:31:18.207Z,14.05
2023-03-06T15:33:59.571Z,14.20
2023-03-06T15:36:33.449Z,14.43
2023-03-06T15:39:00.895Z,14.55
2023-03-06T15:41:37.212Z,15.98
2023-03-06T15:44:12.747Z,14.50
2023-03-06T15:46:39.914Z,15.50
2023-03-06T15:49:14.715Z,14.57
2023-03-06T15:51:41.376Z,14.65
2023-03-06T15:54:12.368Z,13.48
2023-03-06T15:56:42.954Z,13.38
2023-03-06T15:59:33.115Z,13.90
2023-03-06T16:02:16.406Z,12.75
2023-03-06T16:04:43.587Z,12.15
2023-03-06T16:07:10.389Z,12.63
2023-03-06T16:09:37.140Z,12.32
2023-03-06T16:12:05.824Z,12.73
2023-03-06T16:14:32.683Z,12.25
2023-03-06T16:16:59.590Z,12.20
2023-03-06T16:19:27.747Z,12.15
2023-03-06T16:21:56.460Z,10.68
2023-03-06T16:24:26.300Z,11.68
2023-03-06T16:26:57.873Z,11.27
2023-03-06T16:29:28.036Z,11.00
2023-03-06T16:31:57.690Z,12.30
2023-03-06T16:34:24.974Z,11.63
2023-03-06T16:36:52.162Z,11.63
2023-03-06T16:39:22.087Z,12.13
2023-03-06T16:41:52.138Z,12.13
2023-03-06T16:44:20.704Z,11.88
2023-03-06T16:46:50.093Z,12.30
2023-03-06T16:49:23.881Z,12.25
2023-03-06T16:51:51.869Z,12.32
2023-03-06T16:54:19.253Z,11.95
2023-03-06T16:56:46.301Z,13.38
2023-03-06T16:59:13.272Z,13.75
2023-03-06T17:01:44.470Z,12.43
2023-03-06T17:04:11.806Z,12.80
2023-03-06T17:06:39.455Z,12.48
2023-03-06T17:09:06.700Z,11.68
2023-03-06T17:11:35.924Z,12.48
2023-03-06T17:14:02.637Z,11.82
2023-03-06T17:16:29.517Z,12.52
2023-03-06T17:18:58.166Z,12.50
2023-03-06T17:21:30.153Z,13.30
2023-03-06T17:23:57.301Z,13.27
2023-03-06T17:26:24.276Z,13.10
2023-03-06T17:28:51.042Z,12.68
2023-03-06T17:31:25.418Z,12.75
2023-03-06T17:33:57.126Z,13.50
2023-03-06T17:36:23.910Z,12.82
2023-03-06T17:38:51.251Z,14.60
2023-03-06T17:41:18.640Z,13.13
2023-03-06T17:43:48.022Z,13.45
2023-03-06T17:46:14.930Z,12.73
2023-03-06T17:48:41.713Z,14.23
2023-03-06T17:51:09.321Z,14.93
2023-03-06T17:53:37.209Z,14.27
2023-03-06T17:56:06.659Z,13.55
2023-03-06T17:58:34.011Z,14.38
2023-03-06T18:01:00.901Z,12.15
2023-03-06T18:03:27.678Z,13.35
2023-03-06T18:06:03.427Z,14.50
2023-03-06T18:08:30.882Z,12.48
2023-03-06T18:11:04.214Z,15.48
2023-03-06T18:13:36.861Z,15.07
2023-03-06T18:16:04.956Z,13.15
2023-03-06T18:18:31.978Z,15.43
2023-03-06T18:21:04.469Z,14.50
2023-03-06T18:23:31.960Z,15.30
2023-03-06T18:26:17.100Z,14.93
2023-03-06T18:28:47.461Z,15.00
2023-03-06T18:31:34.654Z,16.08
2023-03-06T18:34:11.666Z,14.60
2023-03-06T18:36:40.158Z,15.02
2023-03-06T18:39:09.713Z,15.85
2023-03-06T18:41:37.370Z,15.15
2023-03-06T18:44:05.217Z,13.43
2023-03-06T18:46:36.424Z,14.52
2023-03-06T18:49:04.517Z,14.38
2023-03-06T18:51:32.265Z,14.55
2023-03-06T18:54:01.255Z,15.60
2023-03-06T18:56:30.664Z,14.57
2023-03-06T18:59:02.883Z,14.18
2023-03-06T19:01:31.272Z,14.30
2023-03-06T19:04:03.790Z,14.57
2023-03-06T19:06:31.009Z,14.60
2023-03-06T19:09:02.083Z,13.85
2023-03-06T19:11:29.733Z,13.63
2023-03-06T19:13:56.529Z,14.02
2023-03-06T19:16:31.168Z,13.23
2023-03-06T19:18:58.013Z,12.57
2023-03-06T19:21:27.696Z,14.60
2023-03-06T19:23:56.050Z,12.48
2023-03-06T19:26:23.430Z,13.20
2023-03-06T19:28:50.511Z,13.32
2023-03-06T19:31:26.798Z,13.15
2023-03-06T19:33:55.890Z,15.07
2023-03-06T19:36:27.549Z,13.13
2023-03-06T19:38:56.496Z,14.15
2023-03-06T19:41:23.723Z,13.93
2023-03-06T19:43:54.429Z,12.98
2023-03-06T19:46:23.066Z,13.35
2023-03-06T19:49:02.370Z,14.18
2023-03-06T19:51:29.557Z,12.82
2023-03-06T19:53:57.530Z,13.07
2023-03-06T19:56:29.223Z,12.63
2023-03-06T19:58:56.513Z,11.50
2023-03-06T20:01:27.928Z,11.52
2023-03-06T20:03:59.778Z,11.65
2023-03-06T20:06:37.589Z,11.27
2023-03-06T20:09:09.085Z,12.63
2023-03-06T20:11:36.199Z,13.13
2023-03-06T20:14:06.049Z,12.60
2023-03-06T20:16:33.874Z,12.20
2023-03-06T20:19:01.836Z,12.38
2023-03-06T20:21:31.926Z,12.55
2023-03-06T20:23:59.334Z,12.63
2023-03-06T20:26:28.896Z,12.50
2023-03-06T20:28:56.612Z,13.15
2023-03-06T20:31:28.125Z,12.70
2023-03-06T20:33:57.983Z,13.05
2023-03-06T20:36:28.762Z,14.90
2023-03-06T20:38:56.545Z,12.57
2023-03-06T20:41:27.374Z,13.38
2023-03-06T20:43:54.810Z,13.18
2023-03-06T20:46:23.621Z,13.00
2023-03-06T20:48:52.669Z,15.00
2023-03-06T20:51:20.729Z,14.85
2023-03-06T20:53:49.802Z,14.60
2023-03-06T20:56:20.314Z,15.65
2023-03-06T20:58:47.499Z,14.52
2023-03-06T21:01:27.262Z,15.00
2023-03-06T21:03:56.810Z,14.23
2023-03-06T21:06:24.050Z,14.75
2023-03-06T21:08:51.343Z,15.73
2023-03-06T21:11:18.574Z,15.02
2023-03-06T21:13:45.414Z,15.38
2023-03-06T21:16:19.425Z,14.30
2023-03-06T21:18:46.849Z,16.38
2023-03-06T21:21:19.105Z,15.45
2023-03-06T21:23:48.175Z,15.13
2023-03-06T21:26:24.396Z,16.75
2023-03-06T21:28:52.339Z,17.15
2023-03-06T21:31:22.621Z,16.10
2023-03-06T21:33:50.984Z,17.63
2023-03-06T21:36:21.853Z,16.85
2023-03-06T21:38:50.674Z,18.25
2023-03-06T21:41:18.961Z,17.27
2023-03-06T21:43:46.228Z,17.92
2023-03-06T21:46:13.584Z,17.67
2023-03-06T21:48:40.603Z,18.27
2023-03-06T21:51:15.771Z,18.73
2023-03-06T21:53:44.854Z,18.42
2023-03-06T21:56:13.201Z,17.02
2023-03-06T21:58:40.193Z,17.90
2023-03-06T22:01:20.165Z,18.77
2023-03-06T22:03:47.343Z,19.83
2023-03-06T22:06:21.746Z,17.58
2023-03-06T22:08:48.734Z,18.02
2023-03-06T22:11:20.972Z,17.02
2023-03-06T22:13:48.356Z,18.85
2023-03-06T22:16:17.055Z,17.38
2023-03-06T22:18:49.640Z,18.15
2023-03-06T22:21:20.336Z,16.80
2023-03-06T22:23:57.483Z,16.05
2023-03-06T22:26:25.827Z,18.27
2023-03-06T22:28:52.607Z,15.75
2023-03-06T22:31:26.061Z,15.90
2023-03-06T22:33:54.485Z,16.27
2023-03-06T22:36:22.433Z,14.13
2023-03-06T22:38:49.702Z,13.70
2023-03-06T22:41:17.940Z,15.32
2023-03-06T22:43:44.668Z,15.27
2023-03-06T22:46:17.072Z,15.40
2023-03-06T22:48:44.610Z,13.25
2023-03-06T22:51:17.922Z,14.73
2023-03-06T22:53:45.723Z,13.13
2023-03-06T22:56:16.399Z,13.38
2023-03-06T22:58:44.802Z,13.30
2023-03-06T23:01:18.465Z,14.95
2023-03-06T23:03:51.443Z,12.20
2023-03-06T23:06:29.386Z,14.05
2023-03-06T23:09:00.796Z,13.63
2023-03-06T23:11:28.855Z,13.20
2023-03-06T23:14:15.722Z,13.13
2023-03-06T23:17:01.165Z,12.23
2023-03-06T23:19:49.412Z,12.95
2023-03-06T23:22:34.498Z,13.93
2023-03-06T23:25:19.798Z,12.65
2023-03-06T23:27:46.450Z,12.35
2023-03-06T23:30:13.737Z,11.70
2023-03-06T23:32:40.423Z,12.60
2023-03-06T23:35:07.693Z,11.93
2023-03-06T23:37:34.360Z,10.68
2023-03-06T23:40:01.478Z,11.48
2023-03-06T23:42:28.177Z,11.15
2023-03-06T23:44:54.820Z,11.18
2023-03-06T23:47:21.523Z,10.30
2023-03-06T23:49:48.197Z,10.25
2023-03-06T23:52:14.846Z,10.80
2023-03-06T23:54:41.497Z,9.65
2023-03-06T23:57:08.396Z,9.05
2023-03-06T23:59:35.036Z,9.15
